sensor_id;sensor_type;location;lat;lon;timestamp;P1;durP1;ratioP1;P2;durP2;ratioP2
68377;SDS011;55322;48.146;11.516;2022-12-16T00:01:02;32.70;;;14.55;;
68377;SDS011;55322;48.146;11.516;2022-12-16T00:03:29;35.67;;;14.20;;
68377;SDS011;55322;48.146;11.516;2022-12-16T00:05:54;37.23;;;15.00;;
68377;SDS011;55322;48.146;11.516;2022-12-16T00:08:19;33.20;;;13.87;;
68377;SDS011;55322;48.146;11.516;2022-12-16T00:10:45;37.33;;;15.30;;
68377;SDS011;55322;48.146;11.516;2022-12-16T00:13:19;37.55;;;15.60;;
68377;SDS011;55322;48.146;11.516;2022-12-16T00:15:44;35.43;;;14.23;;
68377;SDS011;55322;48.146;11.516;2022-12-16T00:18:13;34.08;;;13.88;;
68377;SDS011;55322;48.146;11.516;2022-12-16T00:20:43;33.65;;;14.15;;
68377;SDS011;55322;48.146;11.516;2022-12-16T00:23:09;33.45;;;14.15;;
68377;SDS011;55322;48.146;11.516;2022-12-16T00:25:35;36.60;;;14.17;;
68377;SDS011;55322;48.146;11.516;2022-12-16T00:28:00;35.10;;;14.53;;
68377;SDS011;55322;48.146;11.516;2022-12-16T00:30:25;33.33;;;13.73;;
68377;SDS011;55322;48.146;11.516;2022-12-16T00:32:50;34.07;;;14.00;;
68377;SDS011;55322;48.146;11.516;2022-12-16T00:35:16;32.27;;;12.50;;
68377;SDS011;55322;48.146;11.516;2022-12-16T00:37:41;32.80;;;12.80;;
68377;SDS011;55322;48.146;11.516;2022-12-16T00:40:07;31.20;;;13.83;;
68377;SDS011;55322;48.146;11.516;2022-12-16T00:42:34;31.85;;;13.25;;
68377;SDS011;55322;48.146;11.516;2022-12-16T00:45:00;32.77;;;13.53;;
68377;SDS011;55322;48.146;11.516;2022-12-16T00:47:25;31.57;;;12.90;;
68377;SDS011;55322;48.146;11.516;2022-12-16T00:49:50;30.40;;;12.23;;
68377;SDS011;55322;48.146;11.516;2022-12-16T00:52:15;29.35;;;11.50;;
68377;SDS011;55322;48.146;11.516;2022-12-16T00:54:41;28.10;;;11.53;;
68377;SDS011;55322;48.146;11.516;2022-12-16T00:57:06;32.63;;;12.73;;
68377;SDS011;55322;48.146;11.516;2022-12-16T00:59:31;30.17;;;12.37;;
68377;SDS011;55322;48.146;11.516;2022-12-16T01:01:57;28.87;;;12.37;;
68377;SDS011;55322;48.146;11.516;2022-12-16T01:04:22;30.60;;;11.80;;
68377;SDS011;55322;48.146;11.516;2022-12-16T01:06:50;27.48;;;11.38;;
68377;SDS011;55322;48.146;11.516;2022-12-16T01:09:15;26.93;;;12.77;;
68377;SDS011;55322;48.146;11.516;2022-12-16T01:11:41;29.57;;;12.73;;
68377;SDS011;55322;48.146;11.516;2022-12-16T01:14:06;28.80;;;11.27;;
68377;SDS011;55322;48.146;11.516;2022-12-16T01:16:31;27.00;;;11.50;;
68377;SDS011;55322;48.146;11.516;2022-12-16T01:18:58;27.60;;;11.15;;
68377;SDS011;55322;48.146;11.516;2022-12-16T01:21:24;28.90;;;12.47;;
68377;SDS011;55322;48.146;11.516;2022-12-16T01:23:50;28.45;;;11.50;;
68377;SDS011;55322;48.146;11.516;2022-12-16T01:26:16;29.93;;;12.07;;
68377;SDS011;55322;48.146;11.516;2022-12-16T01:28:42;26.50;;;11.38;;
68377;SDS011;55322;48.146;11.516;2022-12-16T01:31:09;28.13;;;12.25;;
68377;SDS011;55322;48.146;11.516;2022-12-16T01:33:35;27.67;;;12.03;;
68377;SDS011;55322;48.146;11.516;2022-12-16T01:36:01;29.45;;;11.75;;
68377;SDS011;55322;48.146;11.516;2022-12-16T01:38:28;26.35;;;11.18;;
68377;SDS011;55322;48.146;11.516;2022-12-16T01:40:54;27.73;;;12.18;;
68377;SDS011;55322;48.146;11.516;2022-12-16T01:43:21;28.30;;;12.10;;
68377;SDS011;55322;48.146;11.516;2022-12-16T01:45:49;28.77;;;12.25;;
68377;SDS011;55322;48.146;11.516;2022-12-16T01:48:50;30.35;;;12.18;;
68377;SDS011;55322;48.146;11.516;2022-12-16T01:51:10;30.17;;;11.15;;
68377;SDS011;55322;48.146;11.516;2022-12-16T01:53:57;27.23;;;11.77;;
68377;SDS011;55322;48.146;11.516;2022-12-16T01:56:26;27.48;;;11.63;;
68377;SDS011;55322;48.146;11.516;2022-12-16T01:58:55;26.42;;;11.77;;
68377;SDS011;55322;48.146;11.516;2022-12-16T02:01:21;30.33;;;12.27;;
68377;SDS011;55322;48.146;11.516;2022-12-16T02:03:47;28.07;;;11.70;;
68377;SDS011;55322;48.146;11.516;2022-12-16T02:06:13;31.27;;;12.65;;
68377;SDS011;55322;48.146;11.516;2022-12-16T02:08:38;30.80;;;12.80;;
68377;SDS011;55322;48.146;11.516;2022-12-16T02:16:54;30.83;;;13.45;;
68377;SDS011;55322;48.146;11.516;2022-12-16T02:27:48;29.67;;;13.63;;
68377;SDS011;55322;48.146;11.516;2022-12-16T02:33:29;30.40;;;15.20;;
68377;SDS011;55322;48.146;11.516;2022-12-16T02:44:00;35.35;;;16.35;;
68377;SDS011;55322;48.146;11.516;2022-12-16T02:46:40;35.13;;;16.48;;
68377;SDS011;55322;48.146;11.516;2022-12-16T02:49:08;34.77;;;15.80;;
68377;SDS011;55322;48.146;11.516;2022-12-16T02:51:37;37.17;;;16.83;;
68377;SDS011;55322;48.146;11.516;2022-12-16T02:54:02;36.65;;;16.88;;
68377;SDS011;55322;48.146;11.516;2022-12-16T02:56:34;38.13;;;17.40;;
68377;SDS011;55322;48.146;11.516;2022-12-16T03:01:52;38.20;;;17.37;;
68377;SDS011;55322;48.146;11.516;2022-12-16T03:04:25;41.17;;;17.92;;
68377;SDS011;55322;48.146;11.516;2022-12-16T03:06:54;34.90;;;17.05;;
68377;SDS011;55322;48.146;11.516;2022-12-16T03:09:23;37.00;;;17.90;;
68377;SDS011;55322;48.146;11.516;2022-12-16T03:11:53;37.15;;;17.98;;
68377;SDS011;55322;48.146;11.516;2022-12-16T03:14:20;28.77;;;15.50;;
68377;SDS011;55322;48.146;11.516;2022-12-16T03:16:48;28.45;;;14.85;;
68377;SDS011;55322;48.146;11.516;2022-12-16T03:19:15;30.50;;;15.95;;
68377;SDS011;55322;48.146;11.516;2022-12-16T03:21:45;30.35;;;15.00;;
68377;SDS011;55322;48.146;11.516;2022-12-16T03:24:16;30.17;;;15.38;;
68377;SDS011;55322;48.146;11.516;2022-12-16T03:26:50;30.55;;;15.32;;
68377;SDS011;55322;48.146;11.516;2022-12-16T03:29:37;29.70;;;14.90;;
68377;SDS011;55322;48.146;11.516;2022-12-16T03:32:37;31.05;;;15.45;;
68377;SDS011;55322;48.146;11.516;2022-12-16T03:35:11;29.60;;;13.88;;
68377;SDS011;55322;48.146;11.516;2022-12-16T03:37:43;33.05;;;16.38;;
68377;SDS011;55322;48.146;11.516;2022-12-16T03:40:12;34.80;;;16.27;;
68377;SDS011;55322;48.146;11.516;2022-12-16T03:42:38;33.90;;;16.93;;
68377;SDS011;55322;48.146;11.516;2022-12-16T03:45:05;34.72;;;16.90;;
68377;SDS011;55322;48.146;11.516;2022-12-16T03:47:32;34.08;;;16.88;;
68377;SDS011;55322;48.146;11.516;2022-12-16T03:49:58;35.47;;;16.07;;
68377;SDS011;55322;48.146;11.516;2022-12-16T03:52:23;36.95;;;17.40;;
68377;SDS011;55322;48.146;11.516;2022-12-16T03:54:48;33.83;;;17.00;;
68377;SDS011;55322;48.146;11.516;2022-12-16T03:57:14;33.43;;;16.70;;
68377;SDS011;55322;48.146;11.516;2022-12-16T03:59:39;35.47;;;16.60;;
68377;SDS011;55322;48.146;11.516;2022-12-16T04:02:04;35.10;;;16.27;;
68377;SDS011;55322;48.146;11.516;2022-12-16T04:04:30;35.97;;;17.37;;
68377;SDS011;55322;48.146;11.516;2022-12-16T04:06:55;36.60;;;18.15;;
68377;SDS011;55322;48.146;11.516;2022-12-16T04:09:39;32.95;;;15.98;;
68377;SDS011;55322;48.146;11.516;2022-12-16T04:12:05;37.33;;;17.37;;
68377;SDS011;55322;48.146;11.516;2022-12-16T04:14:48;34.60;;;17.08;;
68377;SDS011;55322;48.146;11.516;2022-12-16T04:17:32;37.38;;;17.48;;
68377;SDS011;55322;48.146;11.516;2022-12-16T04:20:16;35.28;;;17.30;;
68377;SDS011;55322;48.146;11.516;2022-12-16T04:23:02;35.80;;;17.80;;
68377;SDS011;55322;48.146;11.516;2022-12-16T04:25:47;35.67;;;17.60;;
68377;SDS011;55322;48.146;11.516;2022-12-16T04:28:13;36.45;;;16.88;;
68377;SDS011;55322;48.146;11.516;2022-12-16T04:30:39;41.67;;;19.23;;
68377;SDS011;55322;48.146;11.516;2022-12-16T04:33:11;40.33;;;19.50;;
68377;SDS011;55322;48.146;11.516;2022-12-16T04:35:57;38.45;;;18.55;;
68377;SDS011;55322;48.146;11.516;2022-12-16T04:38:42;40.15;;;18.10;;
68377;SDS011;55322;48.146;11.516;2022-12-16T04:41:26;44.53;;;19.65;;
68377;SDS011;55322;48.146;11.516;2022-12-16T04:44:09;37.75;;;18.40;;
68377;SDS011;55322;48.146;11.516;2022-12-16T04:46:54;42.42;;;19.55;;
68377;SDS011;55322;48.146;11.516;2022-12-16T04:49:37;42.83;;;18.52;;
68377;SDS011;55322;48.146;11.516;2022-12-16T04:52:22;42.95;;;19.55;;
68377;SDS011;55322;48.146;11.516;2022-12-16T04:55:06;41.13;;;18.42;;
68377;SDS011;55322;48.146;11.516;2022-12-16T04:57:55;39.42;;;18.73;;
68377;SDS011;55322;48.146;11.516;2022-12-16T05:00:41;41.53;;;20.20;;
68377;SDS011;55322;48.146;11.516;2022-12-16T05:03:26;42.22;;;18.38;;
68377;SDS011;55322;48.146;11.516;2022-12-16T05:06:10;40.45;;;18.73;;
68377;SDS011;55322;48.146;11.516;2022-12-16T05:08:54;48.42;;;19.83;;
68377;SDS011;55322;48.146;11.516;2022-12-16T05:11:38;38.72;;;20.02;;
68377;SDS011;55322;48.146;11.516;2022-12-16T05:14:22;44.83;;;19.23;;
68377;SDS011;55322;48.146;11.516;2022-12-16T05:17:06;40.15;;;19.33;;
68377;SDS011;55322;48.146;11.516;2022-12-16T05:19:50;41.75;;;18.73;;
68377;SDS011;55322;48.146;11.516;2022-12-16T05:22:34;42.88;;;19.10;;
68377;SDS011;55322;48.146;11.516;2022-12-16T05:25:18;40.83;;;19.50;;
68377;SDS011;55322;48.146;11.516;2022-12-16T05:28:03;42.72;;;20.85;;
68377;SDS011;55322;48.146;11.516;2022-12-16T05:30:47;42.50;;;19.85;;
68377;SDS011;55322;48.146;11.516;2022-12-16T05:33:31;44.15;;;20.60;;
68377;SDS011;55322;48.146;11.516;2022-12-16T05:36:15;47.28;;;20.35;;
68377;SDS011;55322;48.146;11.516;2022-12-16T05:38:59;52.50;;;22.70;;
68377;SDS011;55322;48.146;11.516;2022-12-16T05:41:42;47.85;;;22.45;;
68377;SDS011;55322;48.146;11.516;2022-12-16T05:44:27;48.90;;;21.48;;
68377;SDS011;55322;48.146;11.516;2022-12-16T05:47:10;45.38;;;22.48;;
68377;SDS011;55322;48.146;11.516;2022-12-16T05:49:55;53.45;;;21.65;;
68377;SDS011;55322;48.146;11.516;2022-12-16T05:52:38;52.65;;;22.05;;
68377;SDS011;55322;48.146;11.516;2022-12-16T05:55:22;50.65;;;22.60;;
68377;SDS011;55322;48.146;11.516;2022-12-16T05:58:07;49.25;;;23.25;;
68377;SDS011;55322;48.146;11.516;2022-12-16T06:00:51;54.53;;;23.52;;
68377;SDS011;55322;48.146;11.516;2022-12-16T06:03:35;57.65;;;24.08;;
68377;SDS011;55322;48.146;11.516;2022-12-16T06:06:19;51.95;;;23.15;;
68377;SDS011;55322;48.146;11.516;2022-12-16T06:09:03;57.65;;;25.08;;
68377;SDS011;55322;48.146;11.516;2022-12-16T06:11:47;53.85;;;24.35;;
68377;SDS011;55322;48.146;11.516;2022-12-16T06:14:31;53.90;;;23.55;;
68377;SDS011;55322;48.146;11.516;2022-12-16T06:17:15;54.67;;;24.13;;
68377;SDS011;55322;48.146;11.516;2022-12-16T06:19:58;50.55;;;22.45;;
68377;SDS011;55322;48.146;11.516;2022-12-16T06:22:42;53.80;;;24.08;;
68377;SDS011;55322;48.146;11.516;2022-12-16T06:25:26;50.13;;;22.35;;
68377;SDS011;55322;48.146;11.516;2022-12-16T06:28:10;54.10;;;23.77;;
68377;SDS011;55322;48.146;11.516;2022-12-16T06:31:08;51.78;;;23.75;;
68377;SDS011;55322;48.146;11.516;2022-12-16T06:33:52;53.20;;;23.30;;
68377;SDS011;55322;48.146;11.516;2022-12-16T06:36:36;56.78;;;24.30;;
68377;SDS011;55322;48.146;11.516;2022-12-16T06:39:21;55.33;;;24.60;;
68377;SDS011;55322;48.146;11.516;2022-12-16T06:42:04;55.97;;;24.67;;
68377;SDS011;55322;48.146;11.516;2022-12-16T06:44:48;57.37;;;24.37;;
68377;SDS011;55322;48.146;11.516;2022-12-16T06:47:32;60.55;;;25.67;;
68377;SDS011;55322;48.146;11.516;2022-12-16T06:50:16;54.78;;;24.75;;
68377;SDS011;55322;48.146;11.516;2022-12-16T06:53:00;55.17;;;24.70;;
68377;SDS011;55322;48.146;11.516;2022-12-16T06:55:44;57.90;;;24.33;;
68377;SDS011;55322;48.146;11.516;2022-12-16T06:58:28;55.97;;;24.58;;
68377;SDS011;55322;48.146;11.516;2022-12-16T07:01:12;55.03;;;24.42;;
68377;SDS011;55322;48.146;11.516;2022-12-16T07:03:56;52.72;;;23.58;;
68377;SDS011;55322;48.146;11.516;2022-12-16T07:06:40;56.05;;;24.75;;
68377;SDS011;55322;48.146;11.516;2022-12-16T07:09:24;53.88;;;23.73;;
68377;SDS011;55322;48.146;11.516;2022-12-16T07:12:08;57.60;;;24.20;;
68377;SDS011;55322;48.146;11.516;2022-12-16T07:14:52;59.28;;;25.50;;
68377;SDS011;55322;48.146;11.516;2022-12-16T07:17:37;56.35;;;24.92;;
68377;SDS011;55322;48.146;11.516;2022-12-16T07:20:22;56.83;;;25.17;;
68377;SDS011;55322;48.146;11.516;2022-12-16T07:23:06;55.38;;;24.08;;
68377;SDS011;55322;48.146;11.516;2022-12-16T07:25:50;56.50;;;23.08;;
68377;SDS011;55322;48.146;11.516;2022-12-16T07:28:33;57.47;;;23.73;;
68377;SDS011;55322;48.146;11.516;2022-12-16T07:31:17;55.85;;;25.02;;
68377;SDS011;55322;48.146;11.516;2022-12-16T07:34:01;59.75;;;24.60;;
68377;SDS011;55322;48.146;11.516;2022-12-16T07:36:45;54.88;;;23.42;;
68377;SDS011;55322;48.146;11.516;2022-12-16T07:39:29;55.45;;;23.00;;
68377;SDS011;55322;48.146;11.516;2022-12-16T07:42:13;56.20;;;25.25;;
68377;SDS011;55322;48.146;11.516;2022-12-16T07:44:57;63.63;;;24.40;;
68377;SDS011;55322;48.146;11.516;2022-12-16T07:47:47;55.97;;;24.08;;
68377;SDS011;55322;48.146;11.516;2022-12-16T07:50:32;58.05;;;23.70;;
68377;SDS011;55322;48.146;11.516;2022-12-16T07:53:16;58.33;;;24.50;;
68377;SDS011;55322;48.146;11.516;2022-12-16T07:56:00;55.55;;;24.85;;
68377;SDS011;55322;48.146;11.516;2022-12-16T07:58:44;54.95;;;23.77;;
68377;SDS011;55322;48.146;11.516;2022-12-16T08:01:28;50.13;;;22.70;;
68377;SDS011;55322;48.146;11.516;2022-12-16T08:04:12;57.72;;;23.38;;
68377;SDS011;55322;48.146;11.516;2022-12-16T08:06:56;53.53;;;23.30;;
68377;SDS011;55322;48.146;11.516;2022-12-16T08:09:40;49.88;;;22.90;;
68377;SDS011;55322;48.146;11.516;2022-12-16T08:12:24;53.88;;;24.50;;
68377;SDS011;55322;48.146;11.516;2022-12-16T08:15:08;50.65;;;23.70;;
68377;SDS011;55322;48.146;11.516;2022-12-16T08:17:53;50.15;;;22.88;;
68377;SDS011;55322;48.146;11.516;2022-12-16T08:20:37;53.63;;;24.05;;
68377;SDS011;55322;48.146;11.516;2022-12-16T08:23:21;57.88;;;25.33;;
68377;SDS011;55322;48.146;11.516;2022-12-16T08:26:05;51.35;;;24.98;;
68377;SDS011;55322;48.146;11.516;2022-12-16T08:28:49;49.92;;;22.98;;
68377;SDS011;55322;48.146;11.516;2022-12-16T08:31:33;51.30;;;22.85;;
68377;SDS011;55322;48.146;11.516;2022-12-16T08:34:17;57.40;;;24.55;;
68377;SDS011;55322;48.146;11.516;2022-12-16T08:37:01;49.80;;;23.08;;
68377;SDS011;55322;48.146;11.516;2022-12-16T08:39:45;53.15;;;24.17;;
68377;SDS011;55322;48.146;11.516;2022-12-16T08:42:29;53.33;;;23.42;;
68377;SDS011;55322;48.146;11.516;2022-12-16T08:45:13;53.63;;;24.20;;
68377;SDS011;55322;48.146;11.516;2022-12-16T08:47:57;53.45;;;23.42;;
68377;SDS011;55322;48.146;11.516;2022-12-16T08:50:52;53.83;;;22.75;;
68377;SDS011;55322;48.146;11.516;2022-12-16T08:53:36;55.53;;;23.27;;
68377;SDS011;55322;48.146;11.516;2022-12-16T08:56:20;52.70;;;23.33;;
68377;SDS011;55322;48.146;11.516;2022-12-16T08:59:03;53.30;;;23.48;;
68377;SDS011;55322;48.146;11.516;2022-12-16T09:01:47;51.67;;;23.35;;
68377;SDS011;55322;48.146;11.516;2022-12-16T09:04:31;51.33;;;22.92;;
68377;SDS011;55322;48.146;11.516;2022-12-16T09:07:15;50.78;;;23.35;;
68377;SDS011;55322;48.146;11.516;2022-12-16T09:10:00;47.90;;;23.40;;
68377;SDS011;55322;48.146;11.516;2022-12-16T09:12:44;47.55;;;22.05;;
68377;SDS011;55322;48.146;11.516;2022-12-16T09:15:28;50.30;;;22.90;;
68377;SDS011;55322;48.146;11.516;2022-12-16T09:18:11;48.97;;;23.38;;
68377;SDS011;55322;48.146;11.516;2022-12-16T09:20:55;50.17;;;22.05;;
68377;SDS011;55322;48.146;11.516;2022-12-16T09:23:40;47.72;;;22.10;;
68377;SDS011;55322;48.146;11.516;2022-12-16T09:26:28;45.20;;;20.73;;
68377;SDS011;55322;48.146;11.516;2022-12-16T09:29:12;43.30;;;20.70;;
68377;SDS011;55322;48.146;11.516;2022-12-16T09:31:56;44.53;;;21.30;;
68377;SDS011;55322;48.146;11.516;2022-12-16T09:34:40;44.75;;;20.77;;
68377;SDS011;55322;48.146;11.516;2022-12-16T09:37:24;47.55;;;20.98;;
68377;SDS011;55322;48.146;11.516;2022-12-16T09:40:09;46.08;;;20.13;;
68377;SDS011;55322;48.146;11.516;2022-12-16T09:45:51;45.75;;;21.02;;
68377;SDS011;55322;48.146;11.516;2022-12-16T09:51:42;44.55;;;20.33;;
68377;SDS011;55322;48.146;11.516;2022-12-16T09:54:28;45.13;;;20.75;;
68377;SDS011;55322;48.146;11.516;2022-12-16T09:57:17;45.13;;;21.42;;
68377;SDS011;55322;48.146;11.516;2022-12-16T10:00:03;44.58;;;20.70;;
68377;SDS011;55322;48.146;11.516;2022-12-16T10:02:49;45.58;;;21.50;;
68377;SDS011;55322;48.146;11.516;2022-12-16T10:05:37;44.95;;;21.20;;
68377;SDS011;55322;48.146;11.516;2022-12-16T10:08:34;42.00;;;20.10;;
68377;SDS011;55322;48.146;11.516;2022-12-16T10:14:42;45.05;;;21.73;;
68377;SDS011;55322;48.146;11.516;2022-12-16T10:17:33;46.13;;;21.48;;
68377;SDS011;55322;48.146;11.516;2022-12-16T10:20:39;40.67;;;20.23;;
68377;SDS011;55322;48.146;11.516;2022-12-16T10:23:31;48.55;;;21.58;;
68377;SDS011;55322;48.146;11.516;2022-12-16T10:26:22;44.28;;;20.42;;
68377;SDS011;55322;48.146;11.516;2022-12-16T10:29:31;48.90;;;21.63;;
68377;SDS011;55322;48.146;11.516;2022-12-16T10:35:19;46.50;;;21.50;;
68377;SDS011;55322;48.146;11.516;2022-12-16T10:38:08;49.30;;;23.25;;
68377;SDS011;55322;48.146;11.516;2022-12-16T10:41:10;45.63;;;21.50;;
68377;SDS011;55322;48.146;11.516;2022-12-16T10:43:56;52.20;;;23.42;;
68377;SDS011;55322;48.146;11.516;2022-12-16T10:46:41;47.70;;;21.70;;
68377;SDS011;55322;48.146;11.516;2022-12-16T10:49:25;45.50;;;21.20;;
68377;SDS011;55322;48.146;11.516;2022-12-16T10:52:10;45.92;;;21.00;;
68377;SDS011;55322;48.146;11.516;2022-12-16T10:55:05;44.88;;;22.45;;
68377;SDS011;55322;48.146;11.516;2022-12-16T10:58:22;48.38;;;22.33;;
68377;SDS011;55322;48.146;11.516;2022-12-16T11:01:21;50.53;;;22.25;;
68377;SDS011;55322;48.146;11.516;2022-12-16T11:04:26;45.13;;;21.98;;
68377;SDS011;55322;48.146;11.516;2022-12-16T11:07:31;44.90;;;21.48;;
68377;SDS011;55322;48.146;11.516;2022-12-16T11:10:36;48.97;;;21.45;;
68377;SDS011;55322;48.146;11.516;2022-12-16T11:19:00;43.50;;;20.30;;
68377;SDS011;55322;48.146;11.516;2022-12-16T11:21:44;37.75;;;17.95;;
68377;SDS011;55322;48.146;11.516;2022-12-16T11:24:30;40.50;;;18.83;;
68377;SDS011;55322;48.146;11.516;2022-12-16T11:27:15;41.15;;;19.50;;
68377;SDS011;55322;48.146;11.516;2022-12-16T11:30:03;45.95;;;20.67;;
68377;SDS011;55322;48.146;11.516;2022-12-16T11:32:56;40.63;;;19.08;;
68377;SDS011;55322;48.146;11.516;2022-12-16T11:35:46;36.95;;;17.98;;
68377;SDS011;55322;48.146;11.516;2022-12-16T11:38:35;39.85;;;19.27;;
68377;SDS011;55322;48.146;11.516;2022-12-16T11:41:26;42.33;;;20.38;;
68377;SDS011;55322;48.146;11.516;2022-12-16T11:44:16;45.03;;;20.50;;
68377;SDS011;55322;48.146;11.516;2022-12-16T11:47:03;44.70;;;20.85;;
68377;SDS011;55322;48.146;11.516;2022-12-16T11:49:55;43.15;;;19.88;;
68377;SDS011;55322;48.146;11.516;2022-12-16T11:52:41;47.30;;;20.48;;
68377;SDS011;55322;48.146;11.516;2022-12-16T11:55:32;41.28;;;19.23;;
68377;SDS011;55322;48.146;11.516;2022-12-16T12:04:06;39.97;;;19.00;;
68377;SDS011;55322;48.146;11.516;2022-12-16T12:09:54;43.15;;;19.90;;
68377;SDS011;55322;48.146;11.516;2022-12-16T12:16:13;41.88;;;18.38;;
68377;SDS011;55322;48.146;11.516;2022-12-16T12:19:11;39.88;;;17.77;;
68377;SDS011;55322;48.146;11.516;2022-12-16T12:22:39;40.75;;;19.10;;
68377;SDS011;55322;48.146;11.516;2022-12-16T12:25:21;39.00;;;19.13;;
68377;SDS011;55322;48.146;11.516;2022-12-16T12:40:01;37.75;;;18.58;;
68377;SDS011;55322;48.146;11.516;2022-12-16T12:42:56;37.78;;;17.52;;
68377;SDS011;55322;48.146;11.516;2022-12-16T12:45:55;38.57;;;19.50;;
68377;SDS011;55322;48.146;11.516;2022-12-16T12:49:10;40.00;;;19.77;;
68377;SDS011;55322;48.146;11.516;2022-12-16T12:52:03;39.08;;;18.67;;
68377;SDS011;55322;48.146;11.516;2022-12-16T12:57:54;39.00;;;18.77;;
68377;SDS011;55322;48.146;11.516;2022-12-16T13:00:48;36.22;;;18.48;;
68377;SDS011;55322;48.146;11.516;2022-12-16T13:04:11;34.63;;;17.60;;
68377;SDS011;55322;48.146;11.516;2022-12-16T13:06:53;34.72;;;17.30;;
68377;SDS011;55322;48.146;11.516;2022-12-16T13:09:37;37.88;;;18.80;;
68377;SDS011;55322;48.146;11.516;2022-12-16T13:12:29;37.90;;;17.77;;
68377;SDS011;55322;48.146;11.516;2022-12-16T13:18:22;34.63;;;17.67;;
68377;SDS011;55322;48.146;11.516;2022-12-16T13:27:10;33.15;;;16.80;;
68377;SDS011;55322;48.146;11.516;2022-12-16T13:30:39;36.58;;;18.17;;
68377;SDS011;55322;48.146;11.516;2022-12-16T13:33:06;38.80;;;18.83;;
68377;SDS011;55322;48.146;11.516;2022-12-16T13:36:07;34.15;;;16.67;;
68377;SDS011;55322;48.146;11.516;2022-12-16T13:38:56;30.58;;;16.08;;
68377;SDS011;55322;48.146;11.516;2022-12-16T13:41:58;38.67;;;17.60;;
68377;SDS011;55322;48.146;11.516;2022-12-16T13:50:36;36.63;;;17.80;;
68377;SDS011;55322;48.146;11.516;2022-12-16T13:53:27;36.35;;;18.23;;
68377;SDS011;55322;48.146;11.516;2022-12-16T13:56:14;38.63;;;17.42;;
68377;SDS011;55322;48.146;11.516;2022-12-16T13:59:03;34.00;;;17.45;;
68377;SDS011;55322;48.146;11.516;2022-12-16T14:01:57;38.60;;;18.67;;
68377;SDS011;55322;48.146;11.516;2022-12-16T14:04:59;37.30;;;17.50;;
68377;SDS011;55322;48.146;11.516;2022-12-16T14:07:43;36.63;;;17.25;;
68377;SDS011;55322;48.146;11.516;2022-12-16T14:10:29;44.30;;;19.08;;
68377;SDS011;55322;48.146;11.516;2022-12-16T14:22:54;37.63;;;18.45;;
68377;SDS011;55322;48.146;11.516;2022-12-16T14:25:44;38.50;;;19.13;;
68377;SDS011;55322;48.146;11.516;2022-12-16T14:28:29;39.50;;;19.15;;
68377;SDS011;55322;48.146;11.516;2022-12-16T14:31:17;45.38;;;20.10;;
68377;SDS011;55322;48.146;11.516;2022-12-16T14:34:11;41.72;;;20.45;;
68377;SDS011;55322;48.146;11.516;2022-12-16T14:36:57;42.60;;;19.55;;
68377;SDS011;55322;48.146;11.516;2022-12-16T14:39:41;43.25;;;20.08;;
68377;SDS011;55322;48.146;11.516;2022-12-16T14:42:27;43.20;;;21.45;;
68377;SDS011;55322;48.146;11.516;2022-12-16T14:48:12;45.70;;;20.35;;
68377;SDS011;55322;48.146;11.516;2022-12-16T14:57:30;39.08;;;19.73;;
68377;SDS011;55322;48.146;11.516;2022-12-16T15:00:17;40.28;;;19.08;;
68377;SDS011;55322;48.146;11.516;2022-12-16T15:03:25;41.60;;;19.30;;
68377;SDS011;55322;48.146;11.516;2022-12-16T15:06:25;42.72;;;19.00;;
68377;SDS011;55322;48.146;11.516;2022-12-16T15:09:18;40.40;;;19.55;;
68377;SDS011;55322;48.146;11.516;2022-12-16T15:12:11;40.40;;;18.42;;
68377;SDS011;55322;48.146;11.516;2022-12-16T15:14:58;37.92;;;18.75;;
68377;SDS011;55322;48.146;11.516;2022-12-16T15:17:50;37.05;;;17.13;;
68377;SDS011;55322;48.146;11.516;2022-12-16T15:20:37;35.17;;;16.40;;
68377;SDS011;55322;48.146;11.516;2022-12-16T15:23:37;35.92;;;17.13;;
68377;SDS011;55322;48.146;11.516;2022-12-16T15:26:24;33.80;;;15.95;;
68377;SDS011;55322;48.146;11.516;2022-12-16T15:32:33;31.17;;;14.85;;
68377;SDS011;55322;48.146;11.516;2022-12-16T15:38:11;29.98;;;14.73;;
68377;SDS011;55322;48.146;11.516;2022-12-16T15:40:59;33.10;;;16.13;;
68377;SDS011;55322;48.146;11.516;2022-12-16T15:43:44;29.77;;;15.23;;
68377;SDS011;55322;48.146;11.516;2022-12-16T15:46:29;28.65;;;14.20;;
68377;SDS011;55322;48.146;11.516;2022-12-16T15:49:18;32.60;;;15.70;;
68377;SDS011;55322;48.146;11.516;2022-12-16T16:01:07;34.65;;;15.57;;
68377;SDS011;55322;48.146;11.516;2022-12-16T16:03:53;33.63;;;16.13;;
68377;SDS011;55322;48.146;11.516;2022-12-16T16:06:40;39.08;;;16.60;;
68377;SDS011;55322;48.146;11.516;2022-12-16T16:09:30;34.83;;;15.88;;
68377;SDS011;55322;48.146;11.516;2022-12-16T16:12:16;35.35;;;16.08;;
68377;SDS011;55322;48.146;11.516;2022-12-16T16:15:02;37.35;;;17.20;;
68377;SDS011;55322;48.146;11.516;2022-12-16T16:17:49;35.33;;;16.08;;
68377;SDS011;55322;48.146;11.516;2022-12-16T16:20:37;33.25;;;16.67;;
68377;SDS011;55322;48.146;11.516;2022-12-16T16:23:21;32.45;;;16.13;;
68377;SDS011;55322;48.146;11.516;2022-12-16T16:26:06;33.85;;;15.73;;
68377;SDS011;55322;48.146;11.516;2022-12-16T16:28:55;33.90;;;16.27;;
68377;SDS011;55322;48.146;11.516;2022-12-16T16:31:39;33.67;;;15.82;;
68377;SDS011;55322;48.146;11.516;2022-12-16T16:34:23;32.15;;;15.70;;
68377;SDS011;55322;48.146;11.516;2022-12-16T16:37:08;28.92;;;14.73;;
68377;SDS011;55322;48.146;11.516;2022-12-16T16:39:56;34.55;;;15.50;;
68377;SDS011;55322;48.146;11.516;2022-12-16T16:42:40;32.13;;;15.18;;
68377;SDS011;55322;48.146;11.516;2022-12-16T16:45:24;34.58;;;15.93;;
68377;SDS011;55322;48.146;11.516;2022-12-16T16:48:09;38.28;;;16.27;;
68377;SDS011;55322;48.146;11.516;2022-12-16T16:50:56;34.83;;;16.45;;
68377;SDS011;55322;48.146;11.516;2022-12-16T19:25:27;31.48;;;13.23;;
68377;SDS011;55322;48.146;11.516;2022-12-16T19:28:14;35.67;;;13.85;;
68377;SDS011;55322;48.146;11.516;2022-12-16T19:30:59;30.80;;;13.63;;
68377;SDS011;55322;48.146;11.516;2022-12-16T19:33:43;33.63;;;13.37;;
68377;SDS011;55322;48.146;11.516;2022-12-16T19:36:27;34.83;;;13.95;;
68377;SDS011;55322;48.146;11.516;2022-12-16T19:39:10;37.20;;;15.98;;
68377;SDS011;55322;48.146;11.516;2022-12-16T19:41:54;36.08;;;15.48;;
68377;SDS011;55322;48.146;11.516;2022-12-16T19:44:38;37.97;;;16.52;;
68377;SDS011;55322;48.146;11.516;2022-12-16T19:47:22;39.77;;;16.03;;
68377;SDS011;55322;48.146;11.516;2022-12-16T19:50:06;37.20;;;15.65;;
68377;SDS011;55322;48.146;11.516;2022-12-16T19:52:51;38.85;;;16.70;;
68377;SDS011;55322;48.146;11.516;2022-12-16T19:55:35;34.42;;;16.13;;
68377;SDS011;55322;48.146;11.516;2022-12-16T19:58:19;35.95;;;16.15;;
68377;SDS011;55322;48.146;11.516;2022-12-16T20:01:04;38.47;;;16.70;;
68377;SDS011;55322;48.146;11.516;2022-12-16T20:03:51;35.20;;;15.90;;
68377;SDS011;55322;48.146;11.516;2022-12-16T20:06:36;39.50;;;15.40;;
68377;SDS011;55322;48.146;11.516;2022-12-16T20:09:20;36.38;;;15.95;;